createdAt,value
2023-04-19T00:02:10.646Z,54.00
2023-04-19T00:04:39.280Z,51.30
2023-04-19T00:07:07.717Z,51.40
2023-04-19T00:09:35.911Z,47.30
2023-04-19T00:12:05.763Z,41.10
2023-04-19T00:14:33.942Z,39.40
2023-04-19T00:17:02.212Z,34.70
2023-04-19T00:19:30.540Z,30.20
2023-04-19T00:21:58.786Z,30.20
2023-04-19T00:24:26.942Z,40.10
2023-04-19T00:26:55.223Z,39.10
2023-04-19T00:29:24.825Z,44.30
2023-04-19T00:31:53.075Z,32.90
2023-04-19T00:34:21.265Z,31.80
2023-04-19T00:36:49.404Z,40.40
2023-04-19T00:39:17.543Z,39.80
2023-04-19T00:41:45.728Z,41.20
2023-04-19T00:44:14.079Z,40.20
2023-04-19T00:46:44.694Z,41.80
2023-04-19T00:49:12.963Z,35.80
2023-04-19T00:51:41.204Z,35.10
2023-04-19T00:54:09.678Z,49.20
2023-04-19T00:56:37.873Z,49.10
2023-04-19T00:59:06.069Z,39.30
2023-04-19T01:01:34.907Z,61.30
2023-04-19T01:04:04.936Z,57.60
2023-04-19T01:06:33.376Z,56.80
2023-04-19T01:09:01.589Z,50.10
2023-04-19T01:11:30.233Z,49.00
2023-04-19T01:13:58.638Z,45.30
2023-04-19T01:16:28.098Z,33.90
2023-04-19T01:18:57.037Z,41.00
2023-04-19T01:21:26.618Z,36.10
2023-04-19T01:23:56.180Z,42.40
2023-04-19T01:26:24.334Z,36.00
2023-04-19T01:28:52.513Z,34.70
2023-04-19T01:31:20.880Z,35.70
2023-04-19T01:33:49.055Z,23.50
2023-04-19T01:36:17.229Z,29.80
2023-04-19T01:38:47.729Z,35.20
2023-04-19T01:41:17.404Z,45.20
2023-04-19T01:43:45.555Z,39.90
2023-04-19T01:46:13.688Z,23.70
2023-04-19T01:48:41.870Z,25.60
2023-04-19T01:51:10.041Z,21.70
2023-04-19T01:53:38.190Z,24.00
2023-04-19T01:56:06.969Z,19.30
2023-04-19T01:58:36.757Z,21.20
2023-04-19T02:01:04.959Z,34.00
2023-04-19T02:03:33.266Z,22.10
2023-04-19T02:06:01.554Z,24.20
2023-04-19T02:08:29.693Z,19.60
2023-04-19T02:10:57.889Z,21.10
2023-04-19T02:13:26.083Z,23.80
2023-04-19T02:15:55.628Z,16.10
2023-04-19T02:18:24.114Z,27.30
2023-04-19T02:20:53.395Z,17.10
2023-04-19T02:23:21.556Z,16.30
2023-04-19T02:25:49.716Z,15.30
2023-04-19T02:28:17.901Z,16.80
2023-04-19T02:30:46.244Z,2.80
2023-04-19T02:33:16.425Z,1.30
2023-04-19T02:35:44.644Z,16.60
2023-04-19T02:38:12.825Z,20.00
2023-04-19T02:40:41.011Z,22.40
2023-04-19T02:43:09.174Z,22.30
2023-04-19T02:45:37.412Z,23.20
2023-04-19T02:48:06.429Z,6.40
2023-04-19T02:50:38.733Z,15.40
2023-04-19T02:53:07.018Z,14.80
2023-04-19T02:55:35.258Z,24.50
2023-04-19T02:58:03.469Z,20.20
2023-04-19T03:00:31.763Z,18.70
2023-04-19T03:03:00.860Z,15.60
2023-04-19T03:05:29.374Z,23.10
2023-04-19T03:07:58.985Z,19.60
2023-04-19T03:10:27.335Z,21.30
2023-04-19T03:12:55.591Z,19.40
2023-04-19T03:15:23.785Z,21.80
2023-04-19T03:17:52.144Z,32.10
2023-04-19T03:20:21.125Z,15.90
2023-04-19T03:22:49.336Z,36.60
2023-04-19T03:25:19.098Z,32.60
2023-04-19T03:27:48.156Z,30.40
2023-04-19T03:30:16.554Z,25.50
2023-04-19T03:32:44.797Z,24.20
2023-04-19T03:35:13.028Z,27.20
2023-04-19T03:37:41.209Z,27.60
2023-04-19T03:40:10.177Z,20.80
2023-04-19T03:42:39.732Z,23.20
2023-04-19T03:45:08.746Z,29.30
2023-04-19T03:47:36.941Z,29.30
2023-04-19T03:50:05.545Z,28.80
2023-04-19T03:52:33.821Z,21.70
2023-04-19T03:55:02.118Z,29.90
2023-04-19T03:57:30.551Z,22.20
2023-04-19T04:00:01.505Z,20.90
2023-04-19T04:02:29.847Z,30.50
2023-04-19T04:04:58.365Z,25.80
2023-04-19T04:07:26.824Z,30.10
2023-04-19T04:09:55.016Z,26.10
2023-04-19T04:12:23.208Z,37.90
2023-04-19T04:14:51.438Z,21.80
2023-04-19T04:17:21.125Z,28.20
2023-04-19T04:19:49.366Z,36.20
2023-04-19T04:22:17.973Z,30.00
2023-04-19T04:24:47.329Z,30.00
2023-04-19T04:27:20.233Z,21.70
2023-04-19T04:29:49.562Z,36.30
2023-04-19T04:32:18.271Z,38.40
2023-04-19T04:34:47.873Z,39.40
2023-04-19T04:37:16.356Z,30.80
2023-04-19T04:39:44.741Z,29.50
2023-04-19T04:42:13.566Z,43.00
2023-04-19T04:44:42.202Z,31.80
2023-04-19T04:47:10.353Z,27.00
2023-04-19T04:49:38.505Z,40.60
2023-04-19T04:52:08.706Z,32.20
2023-04-19T04:54:36.926Z,35.00
2023-04-19T04:57:05.324Z,41.30
2023-04-19T04:59:33.671Z,47.50
2023-04-19T05:02:02.009Z,36.40
2023-04-19T05:04:30.217Z,49.90
2023-04-19T05:06:58.503Z,53.30
2023-04-19T05:09:28.132Z,54.80
2023-04-19T05:11:56.361Z,56.20
2023-04-19T05:14:24.649Z,55.80
2023-04-19T05:16:52.816Z,48.50
2023-04-19T05:19:20.973Z,51.30
2023-04-19T05:21:49.714Z,49.70
2023-04-19T05:24:18.244Z,54.90
2023-04-19T05:26:47.997Z,57.40
2023-04-19T05:29:16.162Z,34.60
2023-04-19T05:31:44.474Z,23.20
2023-04-19T05:34:12.662Z,52.00
2023-04-19T05:36:40.807Z,48.90
2023-04-19T05:39:09.467Z,42.30
2023-04-19T05:41:37.641Z,47.50
2023-04-19T05:44:07.268Z,43.30
2023-04-19T05:46:36.308Z,52.20
2023-04-19T05:49:04.798Z,50.60
2023-04-19T05:51:33.001Z,49.30
2023-04-19T05:54:01.961Z,60.80
2023-04-19T05:56:30.526Z,57.60
2023-04-19T05:59:00.861Z,44.00
2023-04-19T06:01:30.484Z,51.50
2023-04-19T06:03:58.791Z,57.50
2023-04-19T06:06:27.673Z,52.30
2023-04-19T06:08:56.165Z,45.40
2023-04-19T06:11:29.188Z,50.20
2023-04-19T06:13:59.880Z,44.60
2023-04-19T06:16:29.557Z,39.60
2023-04-19T06:18:58.022Z,47.10
2023-04-19T06:21:26.986Z,53.50
2023-04-19T06:23:55.152Z,50.20
2023-04-19T06:26:23.315Z,71.00
2023-04-19T06:28:51.517Z,68.20
2023-04-19T06:31:20.036Z,67.10
2023-04-19T06:33:49.715Z,58.90
2023-04-19T06:36:17.942Z,77.80
2023-04-19T06:38:46.357Z,69.70
2023-04-19T06:41:14.831Z,58.40
2023-04-19T06:43:44.717Z,58.70
2023-04-19T06:46:14.066Z,62.90
2023-04-19T06:48:42.478Z,61.30
2023-04-19T06:51:12.100Z,56.10
2023-04-19T06:53:40.275Z,63.50
2023-04-19T06:56:10.075Z,56.30
2023-04-19T06:58:38.276Z,54.30
2023-04-19T07:01:06.611Z,47.90
2023-04-19T07:03:34.976Z,49.80
2023-04-19T07:06:03.226Z,47.30
2023-04-19T07:08:46.302Z,49.90
2023-04-19T07:11:17.260Z,43.10
2023-04-19T07:13:45.435Z,46.00
2023-04-19T07:16:14.688Z,47.20
2023-04-19T07:18:43.904Z,43.70
2023-04-19T07:21:12.138Z,39.40
2023-04-19T07:23:41.797Z,34.80
2023-04-19T07:26:09.992Z,37.10
2023-04-19T07:28:38.132Z,46.40
2023-04-19T07:31:09.417Z,43.90
2023-04-19T07:33:37.669Z,43.50
2023-04-19T07:36:06.606Z,42.60
2023-04-19T07:38:34.849Z,38.60
2023-04-19T07:41:05.288Z,26.80
2023-04-19T07:43:33.481Z,27.60
2023-04-19T07:46:01.742Z,34.40
2023-04-19T07:48:30.317Z,34.10
2023-04-19T07:50:58.606Z,20.80
2023-04-19T07:53:27.586Z,12.70
2023-04-19T07:55:55.847Z,13.60
2023-04-19T07:58:25.512Z,18.80
2023-04-19T08:00:53.693Z,17.60
2023-04-19T08:03:25.171Z,25.90
2023-04-19T08:05:53.796Z,21.30
2023-04-19T08:08:22.197Z,17.20
2023-04-19T08:10:50.453Z,26.60
2023-04-19T08:13:19.125Z,25.40
2023-04-19T08:18:22.883Z,22.60
2023-04-19T08:20:51.191Z,27.10
2023-04-19T08:23:25.801Z,20.00
2023-04-19T08:25:57.846Z,30.00
2023-04-19T08:28:26.050Z,29.40
2023-04-19T08:30:56.098Z,34.10
2023-04-19T08:33:24.248Z,19.70
2023-04-19T08:35:52.612Z,20.70
2023-04-19T08:38:20.955Z,19.20
2023-04-19T08:40:53.227Z,20.70
2023-04-19T08:43:22.396Z,22.50
2023-04-19T08:45:52.454Z,13.60
2023-04-19T08:48:24.181Z,15.70
2023-04-19T08:51:04.345Z,12.60
2023-04-19T08:53:35.830Z,10.40
2023-04-19T08:56:17.509Z,15.00
2023-04-19T09:01:33.840Z,8.30
2023-04-19T09:04:26.470Z,2.80
2023-04-19T09:06:53.948Z,5.40
2023-04-19T09:09:35.354Z,9.70
2023-04-19T09:12:17.898Z,6.20
2023-04-19T09:15:01.125Z,1.20
2023-04-19T09:17:30.618Z,1.00
2023-04-19T09:20:00.334Z,8.80
2023-04-19T09:22:28.761Z,1.00
2023-04-19T09:27:30.094Z,3.20
2023-04-19T09:29:59.519Z,12.10
2023-04-19T09:32:28.728Z,6.70
2023-04-19T09:34:59.624Z,5.80
2023-04-19T09:39:59.744Z,6.30
2023-04-19T09:48:02.546Z,10.20
2023-04-19T09:50:33.468Z,3.10
2023-04-19T09:53:04.558Z,1.00
2023-04-19T09:55:42.306Z,6.90
2023-04-19T09:58:22.252Z,5.50
2023-04-19T10:00:57.183Z,9.80
2023-04-19T10:03:32.269Z,5.00
2023-04-19T10:06:10.536Z,1.00
2023-04-19T10:08:45.362Z,9.50
2023-04-19T10:11:14.248Z,1.60
2023-04-19T10:13:44.075Z,3.30
2023-04-19T10:16:19.420Z,5.30
2023-04-19T10:18:50.082Z,10.80
2023-04-19T10:21:21.678Z,1.00
2023-04-19T10:23:50.370Z,11.80
2023-04-19T10:26:18.590Z,3.20
2023-04-19T10:28:48.554Z,1.00
2023-04-19T10:31:16.867Z,1.00
2023-04-19T10:33:45.153Z,9.50
2023-04-19T10:36:17.739Z,8.10
2023-04-19T10:38:49.283Z,13.30
2023-04-19T10:41:19.032Z,18.20
2023-04-19T10:43:48.788Z,18.60
2023-04-19T10:46:37.214Z,17.00
2023-04-19T10:49:07.906Z,16.30
2023-04-19T10:51:37.468Z,18.10
2023-04-19T10:54:08.484Z,21.40
2023-04-19T10:57:05.327Z,19.10
2023-04-19T10:59:34.960Z,12.40
2023-04-19T11:02:04.864Z,14.80
2023-04-19T11:05:19.140Z,16.10
2023-04-19T11:07:48.538Z,10.30
2023-04-19T11:10:35.968Z,10.20
2023-04-19T11:13:04.661Z,10.20
2023-04-19T11:15:33.262Z,1.00
2023-04-19T11:18:11.917Z,9.30
2023-04-19T11:20:44.357Z,1.00
2023-04-19T11:23:18.182Z,2.10
2023-04-19T11:25:48.624Z,1.00
2023-04-19T11:28:18.527Z,5.80
2023-04-19T11:30:47.389Z,1.00
2023-04-19T11:33:15.680Z,7.70
2023-04-19T11:35:45.525Z,1.00
2023-04-19T11:38:14.909Z,3.60
2023-04-19T11:40:43.142Z,7.70
2023-04-19T11:43:13.019Z,3.90
2023-04-19T11:45:41.991Z,1.00
2023-04-19T11:48:16.173Z,4.00
2023-04-19T11:50:45.771Z,6.50
2023-04-19T11:53:16.274Z,3.10
2023-04-19T11:55:46.356Z,8.80
2023-04-19T11:58:31.140Z,5.40
2023-04-19T12:01:08.606Z,6.70
2023-04-19T12:03:41.836Z,12.80
2023-04-19T12:06:14.281Z,13.10
2023-04-19T12:08:47.210Z,15.00
2023-04-19T12:11:21.553Z,19.20
2023-04-19T12:14:09.444Z,7.60
2023-04-19T12:16:37.715Z,12.30
2023-04-19T12:19:17.688Z,12.30
2023-04-19T12:21:49.073Z,7.60
2023-04-19T12:24:17.919Z,3.80
2023-04-19T12:26:56.243Z,16.40
2023-04-19T12:29:26.263Z,2.50
2023-04-19T12:31:54.653Z,9.80
2023-04-19T12:34:22.898Z,11.30
2023-04-19T12:36:51.314Z,3.80
2023-04-19T12:39:19.776Z,8.20
2023-04-19T12:41:48.924Z,18.10
2023-04-19T12:44:17.565Z,15.20
2023-04-19T12:46:47.193Z,20.10
2023-04-19T12:49:15.574Z,25.90
2023-04-19T12:51:43.942Z,24.30
2023-04-19T12:54:12.214Z,20.70
2023-04-19T12:56:40.378Z,25.90
2023-04-19T12:59:08.624Z,18.00
2023-04-19T13:01:36.937Z,20.80
2023-04-19T13:04:08.045Z,20.10
2023-04-19T13:06:36.404Z,28.80
2023-04-19T13:09:14.041Z,31.30
2023-04-19T13:11:43.065Z,23.70
2023-04-19T13:14:11.276Z,28.70
2023-04-19T13:16:39.677Z,21.20
2023-04-19T13:19:09.393Z,27.30
2023-04-19T13:21:37.650Z,29.70
2023-04-19T13:24:06.647Z,21.10
2023-04-19T13:26:35.638Z,26.60
2023-04-19T13:29:04.306Z,15.00
2023-04-19T13:31:32.630Z,21.80
2023-04-19T13:34:01.593Z,26.30
2023-04-19T13:36:31.327Z,29.00
2023-04-19T13:38:59.758Z,31.60
2023-04-19T13:41:27.959Z,26.00
2023-04-19T13:43:56.289Z,13.30
2023-04-19T13:46:24.960Z,15.90
2023-04-19T13:48:53.165Z,21.80
2023-04-19T13:51:21.433Z,15.50
2023-04-19T13:53:51.306Z,11.90
2023-04-19T13:56:19.562Z,20.70
2023-04-19T13:58:47.838Z,16.20
2023-04-19T14:01:16.275Z,17.20
2023-04-19T14:03:44.820Z,8.70
2023-04-19T14:06:13.127Z,8.20
2023-04-19T14:08:41.306Z,15.20
2023-04-19T14:11:10.959Z,22.60
2023-04-19T14:13:39.202Z,20.70
2023-04-19T14:16:08.191Z,22.70
2023-04-19T14:18:36.462Z,23.70
2023-04-19T14:21:05.089Z,21.90
2023-04-19T14:23:34.564Z,22.60
2023-04-19T14:26:03.105Z,25.60
2023-04-19T14:28:32.764Z,24.50
2023-04-19T14:31:01.004Z,18.90
2023-04-19T14:33:29.287Z,23.80
2023-04-19T14:35:57.478Z,23.00
2023-04-19T14:38:25.649Z,26.90
2023-04-19T14:40:53.842Z,24.00
2023-04-19T14:43:22.128Z,26.50
2023-04-19T14:45:52.226Z,30.00
2023-04-19T14:48:22.240Z,29.20
2023-04-19T14:50:51.120Z,31.40
2023-04-19T14:53:19.358Z,35.40
2023-04-19T14:55:47.571Z,45.40
2023-04-19T14:58:15.780Z,45.50
2023-04-19T15:00:44.074Z,59.50
2023-04-19T15:03:13.814Z,60.00
2023-04-19T15:05:42.208Z,52.20
2023-04-19T15:08:20.169Z,56.40
2023-04-19T15:10:57.712Z,55.40
2023-04-19T15:13:26.017Z,60.60
2023-04-19T15:15:54.246Z,61.40
2023-04-19T15:18:23.850Z,63.80
2023-04-19T15:20:52.098Z,57.20
2023-04-19T15:23:22.363Z,52.10
2023-04-19T15:25:50.901Z,56.80
2023-04-19T15:28:19.145Z,58.90
2023-04-19T15:30:49.199Z,57.00
2023-04-19T15:33:17.451Z,58.50
2023-04-19T15:35:47.035Z,63.80
2023-04-19T15:38:15.240Z,63.20
2023-04-19T15:40:43.414Z,65.30
2023-04-19T15:43:11.602Z,64.60
2023-04-19T15:45:39.775Z,64.90
2023-04-19T15:48:08.238Z,66.10
2023-04-19T15:50:38.132Z,65.20
2023-04-19T15:53:08.816Z,65.20
2023-04-19T15:55:37.638Z,58.10
2023-04-19T15:58:06.401Z,56.60
2023-04-19T16:00:34.599Z,59.00
2023-04-19T16:03:02.990Z,52.50
2023-04-19T16:05:31.271Z,53.40
2023-04-19T16:08:03.911Z,52.30
2023-04-19T16:10:33.776Z,46.10
2023-04-19T16:13:02.134Z,46.60
2023-04-19T16:15:30.311Z,45.90
2023-04-19T16:17:58.647Z,44.30
2023-04-19T16:20:26.933Z,40.60
2023-04-19T16:22:55.157Z,36.10
2023-04-19T16:25:23.739Z,22.30
2023-04-19T16:27:53.305Z,36.80
2023-04-19T16:30:22.250Z,60.00
2023-04-19T16:32:51.142Z,47.30
2023-04-19T16:35:19.359Z,45.20
2023-04-19T16:37:47.531Z,62.40
2023-04-19T16:40:15.914Z,53.30
2023-04-19T16:42:44.179Z,43.60
2023-04-19T16:45:13.870Z,37.20
2023-04-19T16:47:43.883Z,46.20
2023-04-19T16:50:12.923Z,39.50
2023-04-19T16:52:41.217Z,45.90
2023-04-19T16:55:10.017Z,37.40
2023-04-19T16:57:38.260Z,54.90
2023-04-19T17:00:08.108Z,39.40
2023-04-19T17:02:37.898Z,41.30
2023-04-19T17:05:07.339Z,28.80
2023-04-19T17:07:35.617Z,37.70
2023-04-19T17:10:03.878Z,37.40
2023-04-19T17:12:32.083Z,27.40
2023-04-19T17:15:00.317Z,30.10
2023-04-19T17:17:28.620Z,36.20
2023-04-19T17:19:58.197Z,38.50
2023-04-19T17:22:26.360Z,46.50
2023-04-19T17:24:57.322Z,42.40
2023-04-19T17:27:25.615Z,59.90
2023-04-19T17:29:53.857Z,53.60
2023-04-19T17:32:22.407Z,45.80
2023-04-19T17:34:50.667Z,64.20
2023-04-19T17:37:20.213Z,48.80
2023-04-19T17:39:48.386Z,50.30
2023-04-19T17:42:16.574Z,43.00
2023-04-19T17:44:44.768Z,45.40
2023-04-19T17:47:12.946Z,48.40
2023-04-19T17:49:41.140Z,47.40
2023-04-19T17:52:09.331Z,47.20
2023-04-19T17:54:38.991Z,47.20
2023-04-19T17:57:07.479Z,46.70
2023-04-19T17:59:35.917Z,54.40
2023-04-19T18:02:04.190Z,44.60
2023-04-19T18:04:32.487Z,40.40
2023-04-19T18:07:00.831Z,68.60
2023-04-19T18:09:29.036Z,52.00
2023-04-19T18:11:59.099Z,54.60
2023-04-19T18:14:27.307Z,52.50
2023-04-19T18:16:55.509Z,55.00
2023-04-19T18:19:24.021Z,56.20
2023-04-19T18:21:52.199Z,44.70
2023-04-19T18:24:20.455Z,58.80
2023-04-19T18:26:48.624Z,58.70
2023-04-19T18:29:19.298Z,56.10
2023-04-19T18:31:47.673Z,60.50
2023-04-19T18:34:15.976Z,53.40
2023-04-19T18:36:44.136Z,54.10
2023-04-19T18:39:13.300Z,60.70
2023-04-19T18:41:41.477Z,57.40
2023-04-19T18:46:42.198Z,38.60
2023-04-19T18:49:10.417Z,39.10
2023-04-19T18:51:39.954Z,39.70
2023-04-19T18:54:08.220Z,42.80
2023-04-19T18:59:10.118Z,45.50
2023-04-19T19:01:38.362Z,44.20
2023-04-19T19:04:31.729Z,40.70
2023-04-19T19:06:59.256Z,38.90
2023-04-19T19:09:30.761Z,32.60
2023-04-19T19:11:59.189Z,39.00
2023-04-19T19:14:27.383Z,40.90
2023-04-19T19:16:55.668Z,41.20
2023-04-19T19:19:25.464Z,35.00
2023-04-19T19:21:53.788Z,43.60
2023-04-19T19:24:21.953Z,43.20
2023-04-19T19:26:50.279Z,41.30
2023-04-19T19:29:22.308Z,38.90
2023-04-19T19:31:51.101Z,39.90
2023-04-19T19:34:28.757Z,45.50
2023-04-19T19:36:59.766Z,51.50
2023-04-19T19:39:28.212Z,45.80
2023-04-19T19:42:05.984Z,43.90
2023-04-19T19:44:34.778Z,49.30
2023-04-19T19:47:09.327Z,41.80
2023-04-19T19:52:10.973Z,47.70
2023-04-19T19:54:39.183Z,35.80
2023-04-19T19:58:06.924Z,45.80
2023-04-19T19:59:56.747Z,45.80
2023-04-19T20:02:27.012Z,45.50
2023-04-19T20:04:55.621Z,34.00
2023-04-19T20:07:42.542Z,41.70
2023-04-19T20:10:14.754Z,40.20
2023-04-19T20:12:44.426Z,42.40
2023-04-19T20:15:13.473Z,38.80
2023-04-19T20:17:42.338Z,40.00
2023-04-19T20:20:11.683Z,45.30
2023-04-19T20:22:41.279Z,30.80
2023-04-19T20:25:10.101Z,38.60
2023-04-19T20:27:38.244Z,39.10
2023-04-19T20:30:07.869Z,22.50
2023-04-19T20:32:36.561Z,42.30
2023-04-19T20:35:08.335Z,28.90
2023-04-19T20:37:37.681Z,40.40
2023-04-19T20:40:09.583Z,36.50
2023-04-19T20:42:37.751Z,11.30
2023-04-19T20:45:06.852Z,16.10
2023-04-19T20:47:37.391Z,19.20
2023-04-19T20:50:06.848Z,29.80
2023-04-19T20:52:35.198Z,32.00
2023-04-19T20:55:03.373Z,22.00
2023-04-19T20:57:32.907Z,24.90
2023-04-19T21:00:01.358Z,27.60
2023-04-19T21:02:29.924Z,22.50
2023-04-19T21:04:58.512Z,11.70
2023-04-19T21:07:27.009Z,20.60
2023-04-19T21:09:55.457Z,26.80
2023-04-19T21:12:24.049Z,26.20
2023-04-19T21:14:53.877Z,24.30
2023-04-19T21:17:22.988Z,20.80
2023-04-19T21:19:51.218Z,15.00
2023-04-19T21:22:19.411Z,15.30
2023-04-19T21:24:47.786Z,13.00
2023-04-19T21:27:19.412Z,16.00
2023-04-19T21:29:48.238Z,15.40
2023-04-19T21:32:22.483Z,20.90
2023-04-19T21:34:50.805Z,18.70
2023-04-19T21:37:20.436Z,16.60
2023-04-19T21:39:49.547Z,10.80
2023-04-19T21:42:17.854Z,18.10
2023-04-19T21:44:46.110Z,16.60
2023-04-19T21:47:21.893Z,23.40
2023-04-19T21:49:51.437Z,29.00
2023-04-19T21:52:20.171Z,27.90
2023-04-19T21:54:48.793Z,26.10
2023-04-19T21:57:17.677Z,20.90
2023-04-19T21:59:46.028Z,15.90
2023-04-19T22:02:16.396Z,33.30
2023-04-19T22:04:46.470Z,31.20
2023-04-19T22:07:18.177Z,26.60
2023-04-19T22:09:47.715Z,29.70
2023-04-19T22:12:19.686Z,29.50
2023-04-19T22:14:53.892Z,30.50
2023-04-19T22:17:23.156Z,31.90
2023-04-19T22:19:54.255Z,31.30
2023-04-19T22:22:25.934Z,31.40
2023-04-19T22:24:58.088Z,35.80
2023-04-19T22:27:26.864Z,30.10
2023-04-19T22:29:55.240Z,32.90
2023-04-19T22:32:23.614Z,27.00
2023-04-19T22:34:53.399Z,29.20
2023-04-19T22:37:21.544Z,31.00
2023-04-19T22:39:49.850Z,30.40
2023-04-19T22:42:18.207Z,23.40
2023-04-19T22:44:46.575Z,22.50
2023-04-19T22:47:16.512Z,22.60
2023-04-19T22:49:45.149Z,27.20
2023-04-19T22:52:15.087Z,28.90
2023-04-19T22:54:43.508Z,28.60
2023-04-19T22:57:12.115Z,30.80
2023-04-19T22:59:40.543Z,35.70
2023-04-19T23:02:09.044Z,29.60
2023-04-19T23:04:38.048Z,36.00
2023-04-19T23:07:07.116Z,35.50
2023-04-19T23:09:39.210Z,36.40
2023-04-19T23:12:08.400Z,41.50
2023-04-19T23:14:38.462Z,49.10
2023-04-19T23:17:07.421Z,27.00
2023-04-19T23:19:36.792Z,41.70
2023-04-19T23:22:05.133Z,37.70
2023-04-19T23:24:33.416Z,32.90
2023-04-19T23:27:03.436Z,32.50
2023-04-19T23:29:31.956Z,32.30
2023-04-19T23:32:00.376Z,37.80
2023-04-19T23:34:28.777Z,37.00
2023-04-19T23:36:57.603Z,39.80
2023-04-19T23:39:26.111Z,30.60
2023-04-19T23:41:54.355Z,18.10
2023-04-19T23:44:24.117Z,26.20
2023-04-19T23:46:52.511Z,29.40
2023-04-19T23:49:20.863Z,39.80
2023-04-19T23:51:50.484Z,36.30
2023-04-19T23:54:22.535Z,30.40
2023-04-19T23:56:50.935Z,29.70
2023-04-19T23:59:19.963Z,35.30
